X  Lukk Metar værinformasjon om luftfart     ENZV Stavanger Airport, Sola
Temperatur
7°C Temperatur
1°C Duggpunkt
66% Luftfuktighet



Vind
9 M/S
20 MPT
32 KM/T
17 KNP



130°
Nåværende forhold

Stort sett spredte skyer Stort sett spredte skyer
Trykk 1016.92 (hPa) - 30.03 (inHg)
Sikt 6.2 (mil) - 10 (km)
Flyplass
Flyplass-kode ENZV

Plassering: Stavanger Airport, Sola
Avstand: 15 (km)

Metar:
ENZV 290050Z 13017KT 9999 SCT043 BKN057 07/01 Q1017

Tid: 29-11-2022 01:50 CET